sensor_id;sensor_type;location;lat;lon;timestamp;pressure;altitude;pressure_sealevel;temperature;humidity
51876;BME280;34054;52.100;5.116;2023-02-10T00:00:21;103336.81;;;2.72;100.00
51876;BME280;34054;52.100;5.116;2023-02-10T00:00:53;103332.44;;;2.81;100.00
51876;BME280;34054;52.100;5.116;2023-02-10T00:01:27;103329.03;;;2.69;100.00
51876;BME280;34054;52.100;5.116;2023-02-10T00:02:00;103333.69;;;2.57;100.00
51876;BME280;34054;52.100;5.116;2023-02-10T00:02:32;103336.53;;;2.56;100.00
51876;BME280;34054;52.100;5.116;2023-02-10T00:03:04;103332.72;;;2.68;100.00
51876;BME280;34054;52.100;5.116;2023-02-10T00:03:36;103334.28;;;2.71;100.00
51876;BME280;34054;52.100;5.116;2023-02-10T00:04:10;103330.44;;;2.83;100.00
51876;BME280;34054;52.100;5.116;2023-02-10T00:04:45;103339.19;;;2.85;100.00
51876;BME280;34054;52.100;5.116;2023-02-10T00:05:17;103339.03;;;2.87;100.00
51876;BME280;34054;52.100;5.116;2023-02-10T00:05:48;103331.41;;;2.82;100.00
51876;BME280;34054;52.100;5.116;2023-02-10T00:06:22;103338.47;;;2.93;100.00
51876;BME280;34054;52.100;5.116;2023-02-10T00:06:54;103338.88;;;2.98;100.00
51876;BME280;34054;52.100;5.116;2023-02-10T00:07:27;103330.00;;;2.97;100.00
51876;BME280;34054;52.100;5.116;2023-02-10T00:07:59;103334.94;;;3.02;100.00
51876;BME280;34054;52.100;5.116;2023-02-10T00:08:30;103326.03;;;2.92;100.00
51876;BME280;34054;52.100;5.116;2023-02-10T00:09:03;103325.06;;;2.93;100.00
51876;BME280;34054;52.100;5.116;2023-02-10T00:09:35;103326.31;;;2.89;100.00
51876;BME280;34054;52.100;5.116;2023-02-10T00:10:08;103322.38;;;2.83;100.00
51876;BME280;34054;52.100;5.116;2023-02-10T00:10:39;103322.81;;;2.69;100.00
51876;BME280;34054;52.100;5.116;2023-02-10T00:11:11;103324.09;;;2.74;100.00
51876;BME280;34054;52.100;5.116;2023-02-10T00:11:43;103328.44;;;2.85;100.00
51876;BME280;34054;52.100;5.116;2023-02-10T00:12:27;103324.50;;;2.79;100.00
51876;BME280;34054;52.100;5.116;2023-02-10T00:12:59;103333.69;;;2.77;100.00
51876;BME280;34054;52.100;5.116;2023-02-10T00:13:32;103329.91;;;2.70;100.00
51876;BME280;34054;52.100;5.116;2023-02-10T00:14:04;103333.16;;;2.63;100.00
51876;BME280;34054;52.100;5.116;2023-02-10T00:14:35;103339.50;;;2.72;100.00
51876;BME280;34054;52.100;5.116;2023-02-10T00:15:08;103330.28;;;2.75;100.00
51876;BME280;34054;52.100;5.116;2023-02-10T00:15:40;103330.19;;;2.76;100.00
51876;BME280;34054;52.100;5.116;2023-02-10T00:16:14;103322.25;;;2.75;100.00
51876;BME280;34054;52.100;5.116;2023-02-10T00:16:49;103326.78;;;2.74;100.00
51876;BME280;34054;52.100;5.116;2023-02-10T00:17:21;103328.47;;;2.65;100.00
51876;BME280;34054;52.100;5.116;2023-02-10T00:17:53;103325.41;;;2.50;100.00
51876;BME280;34054;52.100;5.116;2023-02-10T00:18:26;103338.09;;;2.58;100.00
51876;BME280;34054;52.100;5.116;2023-02-10T00:18:58;103327.34;;;2.58;100.00
51876;BME280;34054;52.100;5.116;2023-02-10T00:19:30;103326.81;;;2.64;100.00
51876;BME280;34054;52.100;5.116;2023-02-10T00:20:06;103332.16;;;2.64;100.00
51876;BME280;34054;52.100;5.116;2023-02-10T00:20:39;103328.91;;;2.61;100.00
51876;BME280;34054;52.100;5.116;2023-02-10T00:21:13;103328.34;;;2.47;100.00
51876;BME280;34054;52.100;5.116;2023-02-10T00:21:47;103333.28;;;2.32;100.00
51876;BME280;34054;52.100;5.116;2023-02-10T00:22:19;103339.78;;;2.40;100.00
51876;BME280;34054;52.100;5.116;2023-02-10T00:22:51;103335.13;;;2.42;100.00
51876;BME280;34054;52.100;5.116;2023-02-10T00:23:23;103333.56;;;2.49;100.00
51876;BME280;34054;52.100;5.116;2023-02-10T00:23:55;103334.13;;;2.53;100.00
51876;BME280;34054;52.100;5.116;2023-02-10T00:24:27;103326.78;;;2.35;100.00
51876;BME280;34054;52.100;5.116;2023-02-10T00:24:59;103332.00;;;2.56;100.00
51876;BME280;34054;52.100;5.116;2023-02-10T00:25:32;103340.03;;;2.56;100.00
51876;BME280;34054;52.100;5.116;2023-02-10T00:26:05;103332.44;;;2.61;100.00
51876;BME280;34054;52.100;5.116;2023-02-10T00:26:37;103332.00;;;2.76;100.00
51876;BME280;34054;52.100;5.116;2023-02-10T00:27:10;103328.03;;;2.70;100.00
51876;BME280;34054;52.100;5.116;2023-02-10T00:27:42;103333.84;;;2.75;100.00
51876;BME280;34054;52.100;5.116;2023-02-10T00:28:14;103335.50;;;2.86;100.00
51876;BME280;34054;52.100;5.116;2023-02-10T00:28:46;103330.16;;;2.86;100.00
51876;BME280;34054;52.100;5.116;2023-02-10T00:29:18;103315.75;;;2.77;100.00
51876;BME280;34054;52.100;5.116;2023-02-10T00:29:51;103333.78;;;2.95;100.00
51876;BME280;34054;52.100;5.116;2023-02-10T00:30:22;103338.47;;;2.93;100.00
51876;BME280;34054;52.100;5.116;2023-02-10T00:30:54;103331.84;;;2.87;100.00
51876;BME280;34054;52.100;5.116;2023-02-10T00:31:27;103332.13;;;2.94;100.00
51876;BME280;34054;52.100;5.116;2023-02-10T00:31:58;103332.41;;;2.91;100.00
51876;BME280;34054;52.100;5.116;2023-02-10T00:32:30;103329.00;;;2.89;100.00
51876;BME280;34054;52.100;5.116;2023-02-10T00:33:03;103334.94;;;2.92;100.00
51876;BME280;34054;52.100;5.116;2023-02-10T00:33:35;103334.94;;;3.02;100.00
51876;BME280;34054;52.100;5.116;2023-02-10T00:34:08;103324.47;;;2.99;100.00
51876;BME280;34054;52.100;5.116;2023-02-10T00:34:42;103337.19;;;3.07;100.00
51876;BME280;34054;52.100;5.116;2023-02-10T00:35:15;103337.19;;;3.07;100.00
51876;BME280;34054;52.100;5.116;2023-02-10T00:35:47;103329.13;;;3.07;100.00
51876;BME280;34054;52.100;5.116;2023-02-10T00:36:19;103326.13;;;3.10;100.00
51876;BME280;34054;52.100;5.116;2023-02-10T00:36:53;103325.84;;;3.13;100.00
51876;BME280;34054;52.100;5.116;2023-02-10T00:37:24;103335.28;;;3.17;100.00
51876;BME280;34054;52.100;5.116;2023-02-10T00:37:57;103329.38;;;3.13;100.00
51876;BME280;34054;52.100;5.116;2023-02-10T00:38:28;103339.28;;;3.13;100.00
51876;BME280;34054;52.100;5.116;2023-02-10T00:39:00;103327.56;;;3.14;100.00
51876;BME280;34054;52.100;5.116;2023-02-10T00:39:32;103327.56;;;3.14;100.00
51876;BME280;34054;52.100;5.116;2023-02-10T00:40:05;103333.16;;;3.21;100.00
51876;BME280;34054;52.100;5.116;2023-02-10T00:40:37;103328.66;;;3.21;100.00
51876;BME280;34054;52.100;5.116;2023-02-10T00:41:11;103334.41;;;3.26;100.00
51876;BME280;34054;52.100;5.116;2023-02-10T00:41:45;103332.84;;;3.34;100.00
51876;BME280;34054;52.100;5.116;2023-02-10T00:42:16;103326.19;;;3.38;100.00
51876;BME280;34054;52.100;5.116;2023-02-10T00:42:48;103332.28;;;3.30;100.00
51876;BME280;34054;52.100;5.116;2023-02-10T00:43:20;103328.50;;;3.33;100.00
51876;BME280;34054;52.100;5.116;2023-02-10T00:43:53;103333.25;;;3.39;100.00
51876;BME280;34054;52.100;5.116;2023-02-10T00:44:24;103334.97;;;3.40;100.00
51876;BME280;34054;52.100;5.116;2023-02-10T00:44:57;103328.53;;;3.03;100.00
51876;BME280;34054;52.100;5.116;2023-02-10T00:45:28;103331.69;;;2.98;100.00
51876;BME280;34054;52.100;5.116;2023-02-10T00:46:00;103330.16;;;2.86;100.00
51876;BME280;34054;52.100;5.116;2023-02-10T00:46:32;103335.50;;;2.96;100.00
51876;BME280;34054;52.100;5.116;2023-02-10T00:47:05;103329.41;;;3.04;100.00
51876;BME280;34054;52.100;5.116;2023-02-10T00:47:37;103332.91;;;3.14;100.00
51876;BME280;34054;52.100;5.116;2023-02-10T00:48:09;103336.72;;;3.21;100.00
51876;BME280;34054;52.100;5.116;2023-02-10T00:48:42;103337.41;;;3.23;100.00
51876;BME280;34054;52.100;5.116;2023-02-10T00:49:14;103340.66;;;3.27;100.00
51876;BME280;34054;52.100;5.116;2023-02-10T00:49:45;103335.66;;;2.94;100.00
51876;BME280;34054;52.100;5.116;2023-02-10T00:50:19;103332.13;;;2.84;100.00
51876;BME280;34054;52.100;5.116;2023-02-10T00:50:51;103332.16;;;2.64;100.00
51876;BME280;34054;52.100;5.116;2023-02-10T00:51:22;103337.22;;;2.67;100.00
51876;BME280;34054;52.100;5.116;2023-02-10T00:51:55;103332.00;;;2.76;100.00
51876;BME280;34054;52.100;5.116;2023-02-10T00:52:28;103330.28;;;2.75;100.00
51876;BME280;34054;52.100;5.116;2023-02-10T00:52:59;103337.22;;;2.77;100.00
51876;BME280;34054;52.100;5.116;2023-02-10T00:53:32;103330.03;;;2.78;100.00
51876;BME280;34054;52.100;5.116;2023-02-10T00:54:05;103331.31;;;2.64;100.00
51876;BME280;34054;52.100;5.116;2023-02-10T00:54:36;103326.34;;;2.69;100.00
51876;BME280;34054;52.100;5.116;2023-02-10T00:55:09;103325.09;;;2.73;100.00
51876;BME280;34054;52.100;5.116;2023-02-10T00:55:40;103338.38;;;2.65;100.00
51876;BME280;34054;52.100;5.116;2023-02-10T00:56:12;103332.72;;;2.68;100.00
51876;BME280;34054;52.100;5.116;2023-02-10T00:56:45;103322.13;;;2.66;100.00
51876;BME280;34054;52.100;5.116;2023-02-10T00:57:16;103330.72;;;2.70;100.00
51876;BME280;34054;52.100;5.116;2023-02-10T00:57:48;103330.03;;;2.78;100.00
51876;BME280;34054;52.100;5.116;2023-02-10T00:58:20;103333.69;;;2.77;100.00
51876;BME280;34054;52.100;5.116;2023-02-10T00:58:52;103334.09;;;2.82;100.00
51876;BME280;34054;52.100;5.116;2023-02-10T00:59:24;103333.66;;;2.96;100.00
51876;BME280;34054;52.100;5.116;2023-02-10T00:59:56;103327.00;;;3.01;100.00
51876;BME280;34054;52.100;5.116;2023-02-10T01:00:28;103330.53;;;3.11;100.00
51876;BME280;34054;52.100;5.116;2023-02-10T01:01:00;103325.69;;;3.14;100.00
51876;BME280;34054;52.100;5.116;2023-02-10T01:01:31;103330.03;;;3.25;100.00
51876;BME280;34054;52.100;5.116;2023-02-10T01:02:04;103335.97;;;3.29;100.00
51876;BME280;34054;52.100;5.116;2023-02-10T01:02:36;103332.00;;;3.33;100.00
51876;BME280;34054;52.100;5.116;2023-02-10T01:03:07;103327.47;;;3.34;100.00
51876;BME280;34054;52.100;5.116;2023-02-10T01:03:39;103324.28;;;3.20;100.00
51876;BME280;34054;52.100;5.116;2023-02-10T01:04:12;103326.41;;;3.17;100.00
51876;BME280;34054;52.100;5.116;2023-02-10T01:04:44;103333.13;;;2.93;100.00
51876;BME280;34054;52.100;5.116;2023-02-10T01:05:15;103322.94;;;2.87;100.00
51876;BME280;34054;52.100;5.116;2023-02-10T01:05:50;103326.59;;;2.95;100.00
51876;BME280;34054;52.100;5.116;2023-02-10T01:06:22;103329.44;;;2.94;100.00
51876;BME280;34054;52.100;5.116;2023-02-10T01:06:54;103327.19;;;2.89;100.00
51876;BME280;34054;52.100;5.116;2023-02-10T01:07:26;103326.75;;;2.84;100.00
51876;BME280;34054;52.100;5.116;2023-02-10T01:08:00;103328.88;;;2.80;100.00
51876;BME280;34054;52.100;5.116;2023-02-10T01:08:32;103329.03;;;2.79;100.00
51876;BME280;34054;52.100;5.116;2023-02-10T01:09:05;103334.69;;;2.86;100.00
51876;BME280;34054;52.100;5.116;2023-02-10T01:09:37;103335.09;;;2.91;100.00
51876;BME280;34054;52.100;5.116;2023-02-10T01:10:10;103340.88;;;2.86;100.00
51876;BME280;34054;52.100;5.116;2023-02-10T01:10:41;103340.88;;;2.86;100.00
51876;BME280;34054;52.100;5.116;2023-02-10T01:11:14;103338.88;;;2.98;100.00
51876;BME280;34054;52.100;5.116;2023-02-10T01:11:48;103334.91;;;3.12;100.00
51876;BME280;34054;52.100;5.116;2023-02-10T01:12:19;103337.97;;;3.17;100.00
51876;BME280;34054;52.100;5.116;2023-02-10T01:12:51;103343.53;;;3.06;100.00
51876;BME280;34054;52.100;5.116;2023-02-10T01:13:23;103345.25;;;3.07;100.00
51876;BME280;34054;52.100;5.116;2023-02-10T01:13:55;103337.47;;;3.04;100.00
51876;BME280;34054;52.100;5.116;2023-02-10T01:14:27;103337.91;;;2.99;100.00
51876;BME280;34054;52.100;5.116;2023-02-10T01:14:59;103339.34;;;2.83;100.00
51876;BME280;34054;52.100;5.116;2023-02-10T01:15:31;103331.00;;;2.77;100.00
51876;BME280;34054;52.100;5.116;2023-02-10T01:16:04;103332.31;;;2.73;100.00
51876;BME280;34054;52.100;5.116;2023-02-10T01:16:40;103335.84;;;2.63;100.00
51876;BME280;34054;52.100;5.116;2023-02-10T01:17:11;103336.09;;;2.60;100.00
51876;BME280;34054;52.100;5.116;2023-02-10T01:17:44;103336.66;;;2.64;100.00
51876;BME280;34054;52.100;5.116;2023-02-10T01:18:16;103335.25;;;2.70;100.00
51876;BME280;34054;52.100;5.116;2023-02-10T01:18:47;103339.34;;;2.74;100.00
51876;BME280;34054;52.100;5.116;2023-02-10T01:19:20;103343.59;;;2.76;100.00
51876;BME280;34054;52.100;5.116;2023-02-10T01:19:51;103335.38;;;2.78;100.00
51876;BME280;34054;52.100;5.116;2023-02-10T01:20:23;103343.59;;;2.76;100.00
51876;BME280;34054;52.100;5.116;2023-02-10T01:20:59;103330.59;;;2.72;100.00
51876;BME280;34054;52.100;5.116;2023-02-10T01:21:31;103336.09;;;2.80;100.00
51876;BME280;34054;52.100;5.116;2023-02-10T01:22:05;103346.84;;;2.80;100.00
51876;BME280;34054;52.100;5.116;2023-02-10T01:22:36;103343.47;;;2.68;100.00
51876;BME280;34054;52.100;5.116;2023-02-10T01:23:09;103343.16;;;2.61;100.00
51876;BME280;34054;52.100;5.116;2023-02-10T01:23:41;103347.13;;;2.67;100.00
51876;BME280;34054;52.100;5.116;2023-02-10T01:24:14;103343.88;;;2.54;100.00
51876;BME280;34054;52.100;5.116;2023-02-10T01:24:45;103351.22;;;2.42;100.00
51876;BME280;34054;52.100;5.116;2023-02-10T01:25:18;103351.34;;;2.50;100.00
51876;BME280;34054;52.100;5.116;2023-02-10T01:25:50;103349.38;;;2.52;100.00
51876;BME280;34054;52.100;5.116;2023-02-10T01:26:21;103352.78;;;2.54;100.00
51876;BME280;34054;52.100;5.116;2023-02-10T01:26:54;103357.84;;;2.57;100.00
51876;BME280;34054;52.100;5.116;2023-02-10T01:27:26;103355.03;;;2.59;100.00
51876;BME280;34054;52.100;5.116;2023-02-10T01:27:57;103352.50;;;2.47;100.00
51876;BME280;34054;52.100;5.116;2023-02-10T01:28:29;103347.25;;;2.36;100.00
51876;BME280;34054;52.100;5.116;2023-02-10T01:29:02;103355.03;;;2.49;100.00
51876;BME280;34054;52.100;5.116;2023-02-10T01:29:34;103357.84;;;2.38;100.00
51876;BME280;34054;52.100;5.116;2023-02-10T01:30:07;103364.78;;;2.40;100.00
51876;BME280;34054;52.100;5.116;2023-02-10T01:30:40;103358.84;;;2.46;100.00
51876;BME280;34054;52.100;5.116;2023-02-10T01:31:14;103353.75;;;2.43;100.00
51876;BME280;34054;52.100;5.116;2023-02-10T01:31:49;103360.81;;;2.34;100.00
51876;BME280;34054;52.100;5.116;2023-02-10T01:32:21;103352.19;;;2.41;100.00
51876;BME280;34054;52.100;5.116;2023-02-10T01:32:52;103353.63;;;2.45;100.00
51876;BME280;34054;52.100;5.116;2023-02-10T01:33:25;103358.97;;;2.35;100.00
51876;BME280;34054;52.100;5.116;2023-02-10T01:33:57;103354.03;;;2.40;100.00
51876;BME280;34054;52.100;5.116;2023-02-10T01:34:29;103357.56;;;2.41;100.00
51876;BME280;34054;52.100;5.116;2023-02-10T01:35:02;103352.50;;;2.47;100.00
51876;BME280;34054;52.100;5.116;2023-02-10T01:35:37;103361.97;;;2.51;100.00
51876;BME280;34054;52.100;5.116;2023-02-10T01:36:12;103354.91;;;2.50;100.00
51876;BME280;34054;52.100;5.116;2023-02-10T01:36:46;103349.13;;;2.55;100.00
51876;BME280;34054;52.100;5.116;2023-02-10T01:37:18;103356.16;;;2.56;100.00
51876;BME280;34054;52.100;5.116;2023-02-10T01:37:49;103358.41;;;2.51;100.00
51876;BME280;34054;52.100;5.116;2023-02-10T01:38:22;103348.81;;;2.48;100.00
51876;BME280;34054;52.100;5.116;2023-02-10T01:38:53;103349.69;;;2.59;100.00
51876;BME280;34054;52.100;5.116;2023-02-10T01:39:26;103351.66;;;2.47;100.00
51876;BME280;34054;52.100;5.116;2023-02-10T01:39:58;103346.97;;;2.49;100.00
51876;BME280;34054;52.100;5.116;2023-02-10T01:40:29;103358.84;;;2.56;100.00
51876;BME280;34054;52.100;5.116;2023-02-10T01:41:02;103346.56;;;2.54;100.00
51876;BME280;34054;52.100;5.116;2023-02-10T01:41:34;103353.31;;;2.48;100.00
51876;BME280;34054;52.100;5.116;2023-02-10T01:42:08;103355.03;;;2.39;100.00
51876;BME280;34054;52.100;5.116;2023-02-10T01:42:44;103361.97;;;2.51;100.00
51876;BME280;34054;52.100;5.116;2023-02-10T01:43:17;103358.25;;;2.53;100.00
51876;BME280;34054;52.100;5.116;2023-02-10T01:43:55;103354.59;;;2.44;100.00
51876;BME280;34054;52.100;5.116;2023-02-10T01:45:38;103364.22;;;2.46;100.00
51876;BME280;34054;52.100;5.116;2023-02-10T01:46:11;103366.03;;;2.36;100.00
51876;BME280;34054;52.100;5.116;2023-02-10T01:46:47;103357.16;;;2.35;100.00
51876;BME280;34054;52.100;5.116;2023-02-10T01:47:20;103366.31;;;2.43;100.00
51876;BME280;34054;52.100;5.116;2023-02-10T01:47:55;103365.59;;;2.41;100.00
51876;BME280;34054;52.100;5.116;2023-02-10T01:48:28;103363.19;;;2.28;100.00
51876;BME280;34054;52.100;5.116;2023-02-10T01:49:02;103363.78;;;2.41;100.00
51876;BME280;34054;52.100;5.116;2023-02-10T01:49:40;103366.06;;;2.46;100.00
51876;BME280;34054;52.100;5.116;2023-02-10T01:50:17;103361.38;;;2.48;100.00
51876;BME280;34054;52.100;5.116;2023-02-10T01:50:52;103362.09;;;2.40;100.00
51876;BME280;34054;52.100;5.116;2023-02-10T01:51:36;103361.66;;;2.45;100.00
51876;BME280;34054;52.100;5.116;2023-02-10T01:52:15;103357.84;;;2.38;100.00
51876;BME280;34054;52.100;5.116;2023-02-10T01:52:49;103364.31;;;2.35;100.00
51876;BME280;34054;52.100;5.116;2023-02-10T01:53:23;103369.00;;;2.43;100.00
51876;BME280;34054;52.100;5.116;2023-02-10T01:53:56;103364.78;;;2.40;100.00
51876;BME280;34054;52.100;5.116;2023-02-10T01:54:30;103351.94;;;2.44;100.00
51876;BME280;34054;52.100;5.116;2023-02-10T01:55:09;103361.38;;;2.38;100.00
51876;BME280;34054;52.100;5.116;2023-02-10T01:55:47;103340.34;;;2.33;100.00
51876;BME280;34054;52.100;5.116;2023-02-10T01:56:22;103361.09;;;2.51;100.00
51876;BME280;34054;52.100;5.116;2023-02-10T01:56:55;103354.47;;;2.45;100.00
51876;BME280;34054;52.100;5.116;2023-02-10T01:57:27;103359.84;;;2.55;100.00
51876;BME280;34054;52.100;5.116;2023-02-10T01:58:01;103351.50;;;2.58;100.00
51876;BME280;34054;52.100;5.116;2023-02-10T01:58:37;103351.50;;;2.58;100.00
51876;BME280;34054;52.100;5.116;2023-02-10T01:59:12;103358.41;;;2.51;100.00
51876;BME280;34054;52.100;5.116;2023-02-10T01:59:45;103348.25;;;2.45;100.00
51876;BME280;34054;52.100;5.116;2023-02-10T02:00:19;103356.72;;;2.50;100.00
51876;BME280;34054;52.100;5.116;2023-02-10T02:00:52;103354.75;;;2.62;100.00
51876;BME280;34054;52.100;5.116;2023-02-10T02:01:24;103352.78;;;2.54;100.00
51876;BME280;34054;52.100;5.116;2023-02-10T02:01:57;103354.47;;;2.55;100.00
51876;BME280;34054;52.100;5.116;2023-02-10T02:02:32;103351.66;;;2.57;100.00
51876;BME280;34054;52.100;5.116;2023-02-10T02:03:06;103355.88;;;2.49;100.00
51876;BME280;34054;52.100;5.116;2023-02-10T02:03:40;103350.50;;;2.40;100.00
51876;BME280;34054;52.100;5.116;2023-02-10T02:04:12;103352.50;;;2.47;100.00
51876;BME280;34054;52.100;5.116;2023-02-10T02:04:47;103355.44;;;2.44;100.00
51876;BME280;34054;52.100;5.116;2023-02-10T02:05:28;103356.16;;;2.46;100.00
51876;BME280;34054;52.100;5.116;2023-02-10T02:06:03;103339.78;;;2.40;100.00
51876;BME280;34054;52.100;5.116;2023-02-10T02:06:36;103359.28;;;2.51;100.00
51876;BME280;34054;52.100;5.116;2023-02-10T02:07:10;103357.16;;;2.55;100.00
51876;BME280;34054;52.100;5.116;2023-02-10T02:07:42;103359.84;;;2.55;100.00
51876;BME280;34054;52.100;5.116;2023-02-10T02:08:17;103357.00;;;2.57;100.00
51876;BME280;34054;52.100;5.116;2023-02-10T02:08:52;103352.47;;;2.57;100.00
51876;BME280;34054;52.100;5.116;2023-02-10T02:09:25;103357.72;;;2.49;100.00
51876;BME280;34054;52.100;5.116;2023-02-10T02:09:57;103363.22;;;2.57;100.00
51876;BME280;34054;52.100;5.116;2023-02-10T02:10:40;103361.25;;;2.59;100.00
51876;BME280;34054;52.100;5.116;2023-02-10T02:11:26;103360.94;;;2.53;100.00
51876;BME280;34054;52.100;5.116;2023-02-10T02:12:17;103351.94;;;2.34;100.00
51876;BME280;34054;52.100;5.116;2023-02-10T02:13:02;103354.72;;;2.32;100.00
51876;BME280;34054;52.100;5.116;2023-02-10T02:13:47;103356.16;;;2.37;100.00
51876;BME280;34054;52.100;5.116;2023-02-10T02:14:33;103354.75;;;2.42;100.00
51876;BME280;34054;52.100;5.116;2023-02-10T02:15:19;103355.03;;;2.49;100.00
51876;BME280;34054;52.100;5.116;2023-02-10T02:16:05;103357.44;;;2.62;100.00
51876;BME280;34054;52.100;5.116;2023-02-10T02:16:58;103353.34;;;2.38;100.00
51876;BME280;34054;52.100;5.116;2023-02-10T02:17:43;103354.47;;;2.26;100.00
51876;BME280;34054;52.100;5.116;2023-02-10T02:18:27;103361.22;;;2.20;100.00
51876;BME280;34054;52.100;5.116;2023-02-10T02:19:17;103356.53;;;2.12;100.00
51876;BME280;34054;52.100;5.116;2023-02-10T02:21:58;103358.97;;;2.25;100.00
51876;BME280;34054;52.100;5.116;2023-02-10T02:23:02;103360.91;;;2.13;100.00
51876;BME280;34054;52.100;5.116;2023-02-10T02:24:05;103350.91;;;2.15;100.00
51876;BME280;34054;52.100;5.116;2023-02-10T02:25:14;103350.63;;;2.09;100.00
51876;BME280;34054;52.100;5.116;2023-02-10T02:27:42;103354.00;;;2.11;100.00
51876;BME280;34054;52.100;5.116;2023-02-10T02:29:02;103359.22;;;2.12;100.00
51876;BME280;34054;52.100;5.116;2023-02-10T02:30:15;103360.47;;;1.98;100.00
51876;BME280;34054;52.100;5.116;2023-02-10T02:31:40;103359.78;;;2.06;100.00
51876;BME280;34054;52.100;5.116;2023-02-10T02:32:20;103366.81;;;1.97;100.00
51876;BME280;34054;52.100;5.116;2023-02-10T02:32:55;103365.00;;;2.08;100.00
51876;BME280;34054;52.100;5.116;2023-02-10T02:33:36;103364.75;;;2.20;100.00
51876;BME280;34054;52.100;5.116;2023-02-10T02:34:15;103366.28;;;2.23;100.00
51876;BME280;34054;52.100;5.116;2023-02-10T02:34:58;103366.84;;;2.27;100.00
51876;BME280;34054;52.100;5.116;2023-02-10T02:35:35;103367.16;;;2.33;100.00
51876;BME280;34054;52.100;5.116;2023-02-10T02:36:17;103368.13;;;2.32;100.00
51876;BME280;34054;52.100;5.116;2023-02-10T02:36:57;103364.78;;;2.40;100.00
51876;BME280;34054;52.100;5.116;2023-02-10T02:37:34;103371.53;;;2.44;100.00
51876;BME280;34054;52.100;5.116;2023-02-10T02:38:09;103369.28;;;2.40;100.00
51876;BME280;34054;52.100;5.116;2023-02-10T02:38:42;103369.72;;;2.45;100.00
51876;BME280;34054;52.100;5.116;2023-02-10T02:39:14;103369.72;;;2.45;100.00
51876;BME280;34054;52.100;5.116;2023-02-10T02:39:48;103367.75;;;2.47;100.00
51876;BME280;34054;52.100;5.116;2023-02-10T02:40:21;103370.00;;;2.51;100.00
51876;BME280;34054;52.100;5.116;2023-02-10T02:40:54;103373.25;;;2.55;100.00
51876;BME280;34054;52.100;5.116;2023-02-10T02:41:28;103374.25;;;2.54;100.00
51876;BME280;34054;52.100;5.116;2023-02-10T02:42:15;103376.38;;;2.50;100.00
51876;BME280;34054;52.100;5.116;2023-02-10T02:42:49;103374.09;;;2.56;100.00
51876;BME280;34054;52.100;5.116;2023-02-10T02:43:21;103376.78;;;2.56;100.00
51876;BME280;34054;52.100;5.116;2023-02-10T02:43:54;103371.41;;;2.46;100.00
51876;BME280;34054;52.100;5.116;2023-02-10T02:44:30;103374.66;;;2.49;100.00
51876;BME280;34054;52.100;5.116;2023-02-10T02:45:04;103369.41;;;2.48;100.00
51876;BME280;34054;52.100;5.116;2023-02-10T02:45:46;103375.66;;;2.48;100.00
51876;BME280;34054;52.100;5.116;2023-02-10T02:46:28;103377.19;;;2.51;100.00
51876;BME280;34054;52.100;5.116;2023-02-10T02:47:18;103368.16;;;2.52;100.00
51876;BME280;34054;52.100;5.116;2023-02-10T02:48:10;103377.34;;;2.59;100.00
51876;BME280;34054;52.100;5.116;2023-02-10T02:48:57;103374.50;;;2.51;100.00
51876;BME280;34054;52.100;5.116;2023-02-10T02:49:40;103359.56;;;2.39;100.00
51876;BME280;34054;52.100;5.116;2023-02-10T02:50:23;103374.53;;;2.41;100.00
51876;BME280;34054;52.100;5.116;2023-02-10T02:51:04;103375.34;;;2.42;100.00
51876;BME280;34054;52.100;5.116;2023-02-10T02:51:47;103381.44;;;2.44;100.00
51876;BME280;34054;52.100;5.116;2023-02-10T02:52:37;103376.63;;;2.38;100.00
51876;BME280;34054;52.100;5.116;2023-02-10T02:53:28;103378.03;;;2.42;100.00
51876;BME280;34054;52.100;5.116;2023-02-10T02:54:14;103383.25;;;2.43;100.00
51876;BME280;34054;52.100;5.116;2023-02-10T02:54:57;103372.66;;;2.42;100.00
51876;BME280;34054;52.100;5.116;2023-02-10T02:55:43;103372.66;;;2.42;100.00
51876;BME280;34054;52.100;5.116;2023-02-10T02:56:30;103371.69;;;2.43;100.00
51876;BME280;34054;52.100;5.116;2023-02-10T02:57:12;103371.38;;;2.36;100.00
51876;BME280;34054;52.100;5.116;2023-02-10T02:58:11;103377.19;;;2.41;100.00
51876;BME280;34054;52.100;5.116;2023-02-10T02:58:53;103383.66;;;2.29;100.00
51876;BME280;34054;52.100;5.116;2023-02-10T02:59:34;103379.28;;;2.18;100.00
51876;BME280;34054;52.100;5.116;2023-02-10T03:00:15;103381.69;;;2.21;100.00
51876;BME280;34054;52.100;5.116;2023-02-10T03:00:51;103381.53;;;2.23;100.00
51876;BME280;34054;52.100;5.116;2023-02-10T03:01:30;103373.91;;;2.18;100.00
51876;BME280;34054;52.100;5.116;2023-02-10T03:02:07;103373.66;;;2.21;100.00
51876;BME280;34054;52.100;5.116;2023-02-10T03:02:44;103374.63;;;2.20;100.00
51876;BME280;34054;52.100;5.116;2023-02-10T03:03:17;103378.84;;;2.13;100.00
51876;BME280;34054;52.100;5.116;2023-02-10T03:03:52;103373.50;;;2.13;100.00
51876;BME280;34054;52.100;5.116;2023-02-10T03:04:27;103358.81;;;2.07;100.00
51876;BME280;34054;52.100;5.116;2023-02-10T03:05:03;103378.13;;;2.11;100.00
51876;BME280;34054;52.100;5.116;2023-02-10T03:05:35;103373.34;;;2.14;100.00
51876;BME280;34054;52.100;5.116;2023-02-10T03:06:07;103377.59;;;2.17;100.00
51876;BME280;34054;52.100;5.116;2023-02-10T03:06:39;103372.06;;;2.18;100.00
51876;BME280;34054;52.100;5.116;2023-02-10T03:07:11;103371.53;;;2.25;100.00
51876;BME280;34054;52.100;5.116;2023-02-10T03:07:43;103361.22;;;2.20;100.00
51876;BME280;34054;52.100;5.116;2023-02-10T03:08:15;103365.31;;;2.24;100.00
51876;BME280;34054;52.100;5.116;2023-02-10T03:08:47;103366.84;;;2.17;100.00
51876;BME280;34054;52.100;5.116;2023-02-10T03:09:19;103373.91;;;2.18;100.00
51876;BME280;34054;52.100;5.116;2023-02-10T03:09:53;103375.75;;;2.17;100.00